sensor_id;sensor_type;location;lat;lon;timestamp;P1;durP1;ratioP1;P2;durP2;ratioP2
846;SDS011;410;48.954;9.474;2022-07-01T00:00:25;2.80;;;1.60;;
846;SDS011;410;48.954;9.474;2022-07-01T00:02:28;2.50;;;1.40;;
846;SDS011;410;48.954;9.474;2022-07-01T00:04:31;3.23;;;1.30;;
846;SDS011;410;48.954;9.474;2022-07-01T00:06:53;3.00;;;1.40;;
846;SDS011;410;48.954;9.474;2022-07-01T00:08:57;3.37;;;1.30;;
846;SDS011;410;48.954;9.474;2022-07-01T00:11:01;4.30;;;1.23;;
846;SDS011;410;48.954;9.474;2022-07-01T00:13:04;2.07;;;1.20;;
846;SDS011;410;48.954;9.474;2022-07-01T00:15:08;3.70;;;1.53;;
846;SDS011;410;48.954;9.474;2022-07-01T00:17:12;5.03;;;1.07;;
846;SDS011;410;48.954;9.474;2022-07-01T00:19:15;3.33;;;1.30;;
846;SDS011;410;48.954;9.474;2022-07-01T00:21:18;2.33;;;1.30;;
846;SDS011;410;48.954;9.474;2022-07-01T00:23:22;2.00;;;1.27;;
846;SDS011;410;48.954;9.474;2022-07-01T00:25:26;3.53;;;1.43;;
846;SDS011;410;48.954;9.474;2022-07-01T00:27:29;1.87;;;1.17;;
846;SDS011;410;48.954;9.474;2022-07-01T00:29:33;3.60;;;1.10;;
846;SDS011;410;48.954;9.474;2022-07-01T00:31:36;3.63;;;1.57;;
846;SDS011;410;48.954;9.474;2022-07-01T00:33:40;2.77;;;1.40;;
846;SDS011;410;48.954;9.474;2022-07-01T00:35:43;7.13;;;1.40;;
846;SDS011;410;48.954;9.474;2022-07-01T00:37:46;2.10;;;1.40;;
846;SDS011;410;48.954;9.474;2022-07-01T00:39:49;2.37;;;1.03;;
846;SDS011;410;48.954;9.474;2022-07-01T00:41:55;2.00;;;1.13;;
846;SDS011;410;48.954;9.474;2022-07-01T00:44:01;3.37;;;1.53;;
846;SDS011;410;48.954;9.474;2022-07-01T00:46:04;2.27;;;1.10;;
846;SDS011;410;48.954;9.474;2022-07-01T00:48:08;1.70;;;1.00;;
846;SDS011;410;48.954;9.474;2022-07-01T00:50:11;2.07;;;1.00;;
846;SDS011;410;48.954;9.474;2022-07-01T00:52:16;3.30;;;1.20;;
846;SDS011;410;48.954;9.474;2022-07-01T00:54:19;3.67;;;1.23;;
846;SDS011;410;48.954;9.474;2022-07-01T00:56:22;1.97;;;1.10;;
846;SDS011;410;48.954;9.474;2022-07-01T00:58:27;6.93;;;1.10;;
846;SDS011;410;48.954;9.474;2022-07-01T01:00:31;2.33;;;1.00;;
846;SDS011;410;48.954;9.474;2022-07-01T01:02:34;2.73;;;1.23;;
846;SDS011;410;48.954;9.474;2022-07-01T01:04:38;2.27;;;1.30;;
846;SDS011;410;48.954;9.474;2022-07-01T01:06:42;3.00;;;1.27;;
846;SDS011;410;48.954;9.474;2022-07-01T01:08:45;3.50;;;1.10;;
846;SDS011;410;48.954;9.474;2022-07-01T01:10:50;3.33;;;1.70;;
846;SDS011;410;48.954;9.474;2022-07-01T01:12:54;2.40;;;1.20;;
846;SDS011;410;48.954;9.474;2022-07-01T01:15:00;2.10;;;1.20;;
846;SDS011;410;48.954;9.474;2022-07-01T01:17:03;1.63;;;0.93;;
846;SDS011;410;48.954;9.474;2022-07-01T01:19:06;2.57;;;1.13;;
846;SDS011;410;48.954;9.474;2022-07-01T01:21:10;2.67;;;1.20;;
846;SDS011;410;48.954;9.474;2022-07-01T01:23:14;1.97;;;1.20;;
846;SDS011;410;48.954;9.474;2022-07-01T01:25:17;4.30;;;1.10;;
846;SDS011;410;48.954;9.474;2022-07-01T01:27:21;3.90;;;1.40;;
846;SDS011;410;48.954;9.474;2022-07-01T01:29:24;5.60;;;1.10;;
846;SDS011;410;48.954;9.474;2022-07-01T01:31:27;2.97;;;1.30;;
846;SDS011;410;48.954;9.474;2022-07-01T01:33:31;4.90;;;1.20;;
846;SDS011;410;48.954;9.474;2022-07-01T01:35:35;2.03;;;1.10;;
846;SDS011;410;48.954;9.474;2022-07-01T01:37:39;4.23;;;1.47;;
846;SDS011;410;48.954;9.474;2022-07-01T01:39:42;4.70;;;1.70;;
846;SDS011;410;48.954;9.474;2022-07-01T01:41:45;4.80;;;1.30;;
846;SDS011;410;48.954;9.474;2022-07-01T01:43:49;3.40;;;1.20;;
846;SDS011;410;48.954;9.474;2022-07-01T01:45:52;2.03;;;1.20;;
846;SDS011;410;48.954;9.474;2022-07-01T01:47:55;2.73;;;1.40;;
846;SDS011;410;48.954;9.474;2022-07-01T01:49:58;2.37;;;1.20;;
846;SDS011;410;48.954;9.474;2022-07-01T01:52:01;1.80;;;1.10;;
846;SDS011;410;48.954;9.474;2022-07-01T01:54:06;2.90;;;1.50;;
846;SDS011;410;48.954;9.474;2022-07-01T01:56:09;1.80;;;1.30;;
846;SDS011;410;48.954;9.474;2022-07-01T01:58:12;3.43;;;1.53;;
846;SDS011;410;48.954;9.474;2022-07-01T02:00:15;2.20;;;1.23;;
846;SDS011;410;48.954;9.474;2022-07-01T02:02:18;3.10;;;1.70;;
846;SDS011;410;48.954;9.474;2022-07-01T02:04:22;4.70;;;1.63;;
846;SDS011;410;48.954;9.474;2022-07-01T02:06:26;3.97;;;1.27;;
846;SDS011;410;48.954;9.474;2022-07-01T02:08:29;4.67;;;1.50;;
846;SDS011;410;48.954;9.474;2022-07-01T02:10:34;2.80;;;1.83;;
846;SDS011;410;48.954;9.474;2022-07-01T02:12:37;3.20;;;1.60;;
846;SDS011;410;48.954;9.474;2022-07-01T02:14:40;2.00;;;1.47;;
846;SDS011;410;48.954;9.474;2022-07-01T02:16:43;2.83;;;1.30;;
846;SDS011;410;48.954;9.474;2022-07-01T02:18:47;2.53;;;1.77;;
846;SDS011;410;48.954;9.474;2022-07-01T02:20:53;3.13;;;1.23;;
846;SDS011;410;48.954;9.474;2022-07-01T02:22:56;3.40;;;1.60;;
846;SDS011;410;48.954;9.474;2022-07-01T02:24:59;2.67;;;1.20;;
846;SDS011;410;48.954;9.474;2022-07-01T02:27:04;2.70;;;1.30;;
846;SDS011;410;48.954;9.474;2022-07-01T02:29:07;2.37;;;1.30;;
846;SDS011;410;48.954;9.474;2022-07-01T02:31:10;2.43;;;1.13;;
846;SDS011;410;48.954;9.474;2022-07-01T02:33:13;3.57;;;1.20;;
846;SDS011;410;48.954;9.474;2022-07-01T02:35:17;1.80;;;1.10;;
846;SDS011;410;48.954;9.474;2022-07-01T02:37:20;2.00;;;1.20;;
846;SDS011;410;48.954;9.474;2022-07-01T02:39:23;1.50;;;0.83;;
846;SDS011;410;48.954;9.474;2022-07-01T02:41:26;2.70;;;1.27;;
846;SDS011;410;48.954;9.474;2022-07-01T02:43:30;1.70;;;0.90;;
846;SDS011;410;48.954;9.474;2022-07-01T02:45:33;2.40;;;1.10;;
846;SDS011;410;48.954;9.474;2022-07-01T02:47:37;4.43;;;0.87;;
846;SDS011;410;48.954;9.474;2022-07-01T02:49:41;4.83;;;1.00;;
846;SDS011;410;48.954;9.474;2022-07-01T02:51:44;3.93;;;1.20;;
846;SDS011;410;48.954;9.474;2022-07-01T02:53:47;1.80;;;1.00;;
846;SDS011;410;48.954;9.474;2022-07-01T02:55:50;1.60;;;0.90;;
846;SDS011;410;48.954;9.474;2022-07-01T02:57:54;1.93;;;1.10;;
846;SDS011;410;48.954;9.474;2022-07-01T02:59:59;2.10;;;1.13;;
846;SDS011;410;48.954;9.474;2022-07-01T03:02:02;3.30;;;1.30;;
846;SDS011;410;48.954;9.474;2022-07-01T03:04:05;3.80;;;1.20;;
846;SDS011;410;48.954;9.474;2022-07-01T03:06:08;3.33;;;1.30;;
846;SDS011;410;48.954;9.474;2022-07-01T03:08:11;2.73;;;1.10;;
846;SDS011;410;48.954;9.474;2022-07-01T03:10:14;1.80;;;1.10;;
846;SDS011;410;48.954;9.474;2022-07-01T03:12:17;1.60;;;1.03;;
846;SDS011;410;48.954;9.474;2022-07-01T03:14:36;2.97;;;1.20;;
846;SDS011;410;48.954;9.474;2022-07-01T03:16:41;2.43;;;1.07;;
846;SDS011;410;48.954;9.474;2022-07-01T03:18:44;2.10;;;1.30;;
846;SDS011;410;48.954;9.474;2022-07-01T03:20:47;2.70;;;1.23;;
846;SDS011;410;48.954;9.474;2022-07-01T03:22:53;2.20;;;1.10;;
846;SDS011;410;48.954;9.474;2022-07-01T03:24:56;1.80;;;1.30;;
846;SDS011;410;48.954;9.474;2022-07-01T03:26:59;2.63;;;1.00;;
846;SDS011;410;48.954;9.474;2022-07-01T03:29:02;2.30;;;1.10;;
846;SDS011;410;48.954;9.474;2022-07-01T03:31:05;3.17;;;1.20;;
846;SDS011;410;48.954;9.474;2022-07-01T03:33:10;2.60;;;1.20;;
846;SDS011;410;48.954;9.474;2022-07-01T03:35:13;4.43;;;1.07;;
846;SDS011;410;48.954;9.474;2022-07-01T03:37:34;1.90;;;1.00;;
846;SDS011;410;48.954;9.474;2022-07-01T03:39:37;2.80;;;1.20;;
846;SDS011;410;48.954;9.474;2022-07-01T03:41:40;2.63;;;1.10;;
846;SDS011;410;48.954;9.474;2022-07-01T03:43:43;2.30;;;1.30;;
846;SDS011;410;48.954;9.474;2022-07-01T03:45:46;3.77;;;1.20;;
846;SDS011;410;48.954;9.474;2022-07-01T03:47:50;2.00;;;1.20;;
846;SDS011;410;48.954;9.474;2022-07-01T03:49:55;1.40;;;0.83;;
846;SDS011;410;48.954;9.474;2022-07-01T03:51:58;6.83;;;1.73;;
846;SDS011;410;48.954;9.474;2022-07-01T03:54:01;1.70;;;1.00;;
846;SDS011;410;48.954;9.474;2022-07-01T03:56:21;2.00;;;1.30;;
846;SDS011;410;48.954;9.474;2022-07-01T03:58:25;4.97;;;2.93;;
846;SDS011;410;48.954;9.474;2022-07-01T04:00:28;2.13;;;1.23;;
846;SDS011;410;48.954;9.474;2022-07-01T04:02:31;3.20;;;1.20;;
846;SDS011;410;48.954;9.474;2022-07-01T04:04:34;1.73;;;1.00;;
846;SDS011;410;48.954;9.474;2022-07-01T04:06:39;8.50;;;1.70;;
846;SDS011;410;48.954;9.474;2022-07-01T04:08:43;3.30;;;1.33;;
846;SDS011;410;48.954;9.474;2022-07-01T04:10:46;5.47;;;1.50;;
846;SDS011;410;48.954;9.474;2022-07-01T04:12:51;1.70;;;1.10;;
846;SDS011;410;48.954;9.474;2022-07-01T04:15:14;3.20;;;1.40;;
846;SDS011;410;48.954;9.474;2022-07-01T04:17:17;2.60;;;1.30;;
846;SDS011;410;48.954;9.474;2022-07-01T04:19:20;2.73;;;1.50;;
846;SDS011;410;48.954;9.474;2022-07-01T04:21:23;4.90;;;1.83;;
846;SDS011;410;48.954;9.474;2022-07-01T04:23:45;2.17;;;1.53;;
846;SDS011;410;48.954;9.474;2022-07-01T04:25:48;2.20;;;1.30;;
846;SDS011;410;48.954;9.474;2022-07-01T04:27:51;1.90;;;1.40;;
846;SDS011;410;48.954;9.474;2022-07-01T04:29:55;2.13;;;1.40;;
846;SDS011;410;48.954;9.474;2022-07-01T04:31:58;2.60;;;1.83;;
846;SDS011;410;48.954;9.474;2022-07-01T04:34:01;3.90;;;1.60;;
846;SDS011;410;48.954;9.474;2022-07-01T04:36:04;2.90;;;1.60;;
846;SDS011;410;48.954;9.474;2022-07-01T04:38:08;3.60;;;1.90;;
846;SDS011;410;48.954;9.474;2022-07-01T04:40:16;2.53;;;1.67;;
846;SDS011;410;48.954;9.474;2022-07-01T04:42:19;2.53;;;1.80;;
846;SDS011;410;48.954;9.474;2022-07-01T04:44:23;2.83;;;1.93;;
846;SDS011;410;48.954;9.474;2022-07-01T04:46:26;3.90;;;1.97;;
846;SDS011;410;48.954;9.474;2022-07-01T04:48:29;2.67;;;1.80;;
846;SDS011;410;48.954;9.474;2022-07-01T04:50:33;2.90;;;1.90;;
846;SDS011;410;48.954;9.474;2022-07-01T04:52:36;3.63;;;2.63;;
846;SDS011;410;48.954;9.474;2022-07-01T04:54:40;2.93;;;2.00;;
846;SDS011;410;48.954;9.474;2022-07-01T04:56:45;6.37;;;4.10;;
846;SDS011;410;48.954;9.474;2022-07-01T04:58:48;4.07;;;2.50;;
846;SDS011;410;48.954;9.474;2022-07-01T05:00:51;3.80;;;2.23;;
846;SDS011;410;48.954;9.474;2022-07-01T05:02:54;3.10;;;2.60;;
846;SDS011;410;48.954;9.474;2022-07-01T05:04:57;3.67;;;2.77;;
846;SDS011;410;48.954;9.474;2022-07-01T05:07:00;3.50;;;2.60;;
846;SDS011;410;48.954;9.474;2022-07-01T05:09:03;4.67;;;2.50;;
846;SDS011;410;48.954;9.474;2022-07-01T05:11:07;9.37;;;8.43;;
846;SDS011;410;48.954;9.474;2022-07-01T05:13:11;3.97;;;2.93;;
846;SDS011;410;48.954;9.474;2022-07-01T05:15:15;3.00;;;2.67;;
846;SDS011;410;48.954;9.474;2022-07-01T05:17:18;4.23;;;3.03;;
846;SDS011;410;48.954;9.474;2022-07-01T05:19:21;4.23;;;2.90;;
846;SDS011;410;48.954;9.474;2022-07-01T05:21:42;3.80;;;3.00;;
846;SDS011;410;48.954;9.474;2022-07-01T05:24:00;4.00;;;3.20;;
846;SDS011;410;48.954;9.474;2022-07-01T05:26:04;5.33;;;3.20;;
846;SDS011;410;48.954;9.474;2022-07-01T05:28:08;4.00;;;3.13;;
846;SDS011;410;48.954;9.474;2022-07-01T05:30:13;3.83;;;3.37;;
846;SDS011;410;48.954;9.474;2022-07-01T05:32:16;4.70;;;3.50;;
846;SDS011;410;48.954;9.474;2022-07-01T05:34:19;5.50;;;4.07;;
846;SDS011;410;48.954;9.474;2022-07-01T05:36:22;4.40;;;3.17;;
846;SDS011;410;48.954;9.474;2022-07-01T05:38:25;5.07;;;3.50;;
846;SDS011;410;48.954;9.474;2022-07-01T05:40:28;4.57;;;3.87;;
846;SDS011;410;48.954;9.474;2022-07-01T05:42:31;4.93;;;3.30;;
846;SDS011;410;48.954;9.474;2022-07-01T05:44:34;5.13;;;3.20;;
846;SDS011;410;48.954;9.474;2022-07-01T05:46:39;4.23;;;3.50;;
846;SDS011;410;48.954;9.474;2022-07-01T05:48:42;4.90;;;3.47;;
846;SDS011;410;48.954;9.474;2022-07-01T05:50:45;7.23;;;3.70;;
846;SDS011;410;48.954;9.474;2022-07-01T05:52:49;7.27;;;3.30;;
846;SDS011;410;48.954;9.474;2022-07-01T05:54:52;5.37;;;3.20;;
846;SDS011;410;48.954;9.474;2022-07-01T05:56:56;5.30;;;3.50;;
846;SDS011;410;48.954;9.474;2022-07-01T05:58:59;4.73;;;3.97;;
846;SDS011;410;48.954;9.474;2022-07-01T06:01:02;4.50;;;3.93;;
846;SDS011;410;48.954;9.474;2022-07-01T06:03:11;5.13;;;3.60;;
846;SDS011;410;48.954;9.474;2022-07-01T06:05:16;3.83;;;3.47;;
846;SDS011;410;48.954;9.474;2022-07-01T06:07:19;5.00;;;3.90;;
846;SDS011;410;48.954;9.474;2022-07-01T06:09:23;5.00;;;3.80;;
846;SDS011;410;48.954;9.474;2022-07-01T06:11:27;6.90;;;4.93;;
846;SDS011;410;48.954;9.474;2022-07-01T06:13:30;4.27;;;3.87;;
846;SDS011;410;48.954;9.474;2022-07-01T06:15:51;4.03;;;3.60;;
846;SDS011;410;48.954;9.474;2022-07-01T06:17:54;5.20;;;4.10;;
846;SDS011;410;48.954;9.474;2022-07-01T06:20:00;4.97;;;3.83;;
846;SDS011;410;48.954;9.474;2022-07-01T06:22:03;4.50;;;4.10;;
846;SDS011;410;48.954;9.474;2022-07-01T06:24:06;5.20;;;3.97;;
846;SDS011;410;48.954;9.474;2022-07-01T06:26:10;5.40;;;4.10;;
846;SDS011;410;48.954;9.474;2022-07-01T06:28:13;5.23;;;4.73;;
846;SDS011;410;48.954;9.474;2022-07-01T06:30:16;5.33;;;3.97;;
846;SDS011;410;48.954;9.474;2022-07-01T06:32:19;4.10;;;3.70;;
846;SDS011;410;48.954;9.474;2022-07-01T06:34:23;4.20;;;3.80;;
846;SDS011;410;48.954;9.474;2022-07-01T06:36:27;4.30;;;3.77;;
846;SDS011;410;48.954;9.474;2022-07-01T06:38:30;8.63;;;4.10;;
846;SDS011;410;48.954;9.474;2022-07-01T06:40:33;4.50;;;3.90;;
846;SDS011;410;48.954;9.474;2022-07-01T06:42:36;6.40;;;4.30;;
846;SDS011;410;48.954;9.474;2022-07-01T06:44:39;5.67;;;4.20;;
846;SDS011;410;48.954;9.474;2022-07-01T06:46:43;5.40;;;4.47;;
846;SDS011;410;48.954;9.474;2022-07-01T06:48:46;5.50;;;4.23;;
846;SDS011;410;48.954;9.474;2022-07-01T06:50:50;6.70;;;4.20;;
846;SDS011;410;48.954;9.474;2022-07-01T06:52:54;7.03;;;4.50;;
846;SDS011;410;48.954;9.474;2022-07-01T06:54:57;6.23;;;4.53;;
846;SDS011;410;48.954;9.474;2022-07-01T06:57:02;5.47;;;4.83;;
846;SDS011;410;48.954;9.474;2022-07-01T06:59:06;5.20;;;4.70;;
846;SDS011;410;48.954;9.474;2022-07-01T07:01:09;5.70;;;4.20;;
846;SDS011;410;48.954;9.474;2022-07-01T07:03:12;6.00;;;5.03;;
846;SDS011;410;48.954;9.474;2022-07-01T07:05:16;5.80;;;4.73;;
846;SDS011;410;48.954;9.474;2022-07-01T07:07:19;6.20;;;4.30;;
846;SDS011;410;48.954;9.474;2022-07-01T07:09:23;9.03;;;5.30;;
846;SDS011;410;48.954;9.474;2022-07-01T07:11:27;5.83;;;4.80;;
846;SDS011;410;48.954;9.474;2022-07-01T07:13:30;5.27;;;4.77;;
846;SDS011;410;48.954;9.474;2022-07-01T07:15:33;5.47;;;4.90;;
846;SDS011;410;48.954;9.474;2022-07-01T07:17:36;5.83;;;5.20;;
846;SDS011;410;48.954;9.474;2022-07-01T07:19:39;5.70;;;5.10;;
846;SDS011;410;48.954;9.474;2022-07-01T07:21:42;5.50;;;5.00;;
846;SDS011;410;48.954;9.474;2022-07-01T07:23:45;5.43;;;4.93;;
846;SDS011;410;48.954;9.474;2022-07-01T07:25:50;6.17;;;4.80;;
846;SDS011;410;48.954;9.474;2022-07-01T07:27:53;8.00;;;5.13;;
846;SDS011;410;48.954;9.474;2022-07-01T07:29:56;5.90;;;5.30;;
846;SDS011;410;48.954;9.474;2022-07-01T07:31:59;5.63;;;5.10;;
846;SDS011;410;48.954;9.474;2022-07-01T07:34:02;6.37;;;5.43;;
846;SDS011;410;48.954;9.474;2022-07-01T07:36:05;5.83;;;5.17;;
846;SDS011;410;48.954;9.474;2022-07-01T07:38:09;5.60;;;4.93;;
846;SDS011;410;48.954;9.474;2022-07-01T07:40:12;6.50;;;5.50;;
846;SDS011;410;48.954;9.474;2022-07-01T07:42:20;6.30;;;4.77;;
846;SDS011;410;48.954;9.474;2022-07-01T07:44:24;4.90;;;4.40;;
846;SDS011;410;48.954;9.474;2022-07-01T07:46:27;7.00;;;5.03;;
846;SDS011;410;48.954;9.474;2022-07-01T07:48:30;5.63;;;4.70;;
846;SDS011;410;48.954;9.474;2022-07-01T07:50:34;6.30;;;4.60;;
846;SDS011;410;48.954;9.474;2022-07-01T07:52:37;5.60;;;4.77;;
846;SDS011;410;48.954;9.474;2022-07-01T07:54:40;5.00;;;3.83;;
846;SDS011;410;48.954;9.474;2022-07-01T07:56:43;5.17;;;4.37;;
846;SDS011;410;48.954;9.474;2022-07-01T07:58:48;4.33;;;3.90;;
846;SDS011;410;48.954;9.474;2022-07-01T08:00:51;5.13;;;4.63;;
846;SDS011;410;48.954;9.474;2022-07-01T08:02:54;7.97;;;4.53;;
846;SDS011;410;48.954;9.474;2022-07-01T08:04:57;6.10;;;4.20;;
846;SDS011;410;48.954;9.474;2022-07-01T08:07:03;4.40;;;4.00;;
846;SDS011;410;48.954;9.474;2022-07-01T08:09:06;4.73;;;4.20;;
846;SDS011;410;48.954;9.474;2022-07-01T08:11:09;6.50;;;3.97;;
846;SDS011;410;48.954;9.474;2022-07-01T08:13:12;5.30;;;4.37;;
846;SDS011;410;48.954;9.474;2022-07-01T08:15:17;8.53;;;4.47;;
846;SDS011;410;48.954;9.474;2022-07-01T08:17:20;5.27;;;4.07;;
846;SDS011;410;48.954;9.474;2022-07-01T08:19:23;4.70;;;4.10;;
846;SDS011;410;48.954;9.474;2022-07-01T08:21:26;4.33;;;3.80;;
846;SDS011;410;48.954;9.474;2022-07-01T08:23:29;5.13;;;4.63;;
846;SDS011;410;48.954;9.474;2022-07-01T08:25:32;5.43;;;4.53;;
846;SDS011;410;48.954;9.474;2022-07-01T08:27:36;5.47;;;4.50;;
846;SDS011;410;48.954;9.474;2022-07-01T08:29:39;4.33;;;3.93;;
846;SDS011;410;48.954;9.474;2022-07-01T08:31:44;5.67;;;4.20;;
846;SDS011;410;48.954;9.474;2022-07-01T08:33:54;5.10;;;4.60;;
846;SDS011;410;48.954;9.474;2022-07-01T08:35:57;7.73;;;4.50;;
846;SDS011;410;48.954;9.474;2022-07-01T08:38:00;5.23;;;4.73;;
846;SDS011;410;48.954;9.474;2022-07-01T08:40:04;5.93;;;5.20;;
846;SDS011;410;48.954;9.474;2022-07-01T08:42:08;7.80;;;4.63;;
846;SDS011;410;48.954;9.474;2022-07-01T08:44:11;6.43;;;4.60;;
846;SDS011;410;48.954;9.474;2022-07-01T08:46:14;5.53;;;5.00;;
846;SDS011;410;48.954;9.474;2022-07-01T08:48:19;5.77;;;4.50;;
846;SDS011;410;48.954;9.474;2022-07-01T08:50:22;5.30;;;4.50;;
846;SDS011;410;48.954;9.474;2022-07-01T08:52:26;7.20;;;4.60;;
846;SDS011;410;48.954;9.474;2022-07-01T08:54:55;5.97;;;4.83;;
846;SDS011;410;48.954;9.474;2022-07-01T08:56:58;6.13;;;5.27;;
846;SDS011;410;48.954;9.474;2022-07-01T08:59:01;8.53;;;5.50;;
846;SDS011;410;48.954;9.474;2022-07-01T09:01:13;5.60;;;5.00;;
846;SDS011;410;48.954;9.474;2022-07-01T09:03:22;7.27;;;5.00;;
846;SDS011;410;48.954;9.474;2022-07-01T09:05:26;6.00;;;4.03;;
846;SDS011;410;48.954;9.474;2022-07-01T09:07:31;4.93;;;4.43;;
846;SDS011;410;48.954;9.474;2022-07-01T09:09:39;6.87;;;4.50;;
846;SDS011;410;48.954;9.474;2022-07-01T09:11:45;5.77;;;4.03;;
846;SDS011;410;48.954;9.474;2022-07-01T09:14:07;4.80;;;4.30;;
846;SDS011;410;48.954;9.474;2022-07-01T09:16:12;4.20;;;3.63;;
846;SDS011;410;48.954;9.474;2022-07-01T09:18:16;4.10;;;3.50;;
846;SDS011;410;48.954;9.474;2022-07-01T09:20:25;3.93;;;3.53;;
846;SDS011;410;48.954;9.474;2022-07-01T09:22:28;4.07;;;3.47;;
846;SDS011;410;48.954;9.474;2022-07-01T09:24:32;4.30;;;3.90;;
846;SDS011;410;48.954;9.474;2022-07-01T09:26:37;6.67;;;3.67;;
846;SDS011;410;48.954;9.474;2022-07-01T09:28:41;4.47;;;3.63;;
846;SDS011;410;48.954;9.474;2022-07-01T09:30:45;3.90;;;3.30;;
846;SDS011;410;48.954;9.474;2022-07-01T09:33:03;4.37;;;3.93;;
846;SDS011;410;48.954;9.474;2022-07-01T09:35:17;3.90;;;3.50;;
846;SDS011;410;48.954;9.474;2022-07-01T09:37:26;4.10;;;3.47;;
846;SDS011;410;48.954;9.474;2022-07-01T09:39:29;4.57;;;3.37;;
846;SDS011;410;48.954;9.474;2022-07-01T09:41:40;4.73;;;4.23;;
846;SDS011;410;48.954;9.474;2022-07-01T09:43:43;7.03;;;4.37;;
846;SDS011;410;48.954;9.474;2022-07-01T09:45:53;5.50;;;4.10;;
846;SDS011;410;48.954;9.474;2022-07-01T09:47:58;5.67;;;4.53;;
846;SDS011;410;48.954;9.474;2022-07-01T09:50:02;4.33;;;3.93;;
846;SDS011;410;48.954;9.474;2022-07-01T09:52:07;4.00;;;3.60;;
846;SDS011;410;48.954;9.474;2022-07-01T09:54:11;3.77;;;3.37;;
846;SDS011;410;48.954;9.474;2022-07-01T09:56:15;4.17;;;3.60;;
846;SDS011;410;48.954;9.474;2022-07-01T09:58:18;4.50;;;4.10;;
846;SDS011;410;48.954;9.474;2022-07-01T10:00:21;4.10;;;3.70;;
846;SDS011;410;48.954;9.474;2022-07-01T10:02:25;6.50;;;4.17;;
846;SDS011;410;48.954;9.474;2022-07-01T10:04:32;3.83;;;3.43;;
846;SDS011;410;48.954;9.474;2022-07-01T10:09:18;4.03;;;3.63;;
846;SDS011;410;48.954;9.474;2022-07-01T10:11:36;5.33;;;4.03;;
846;SDS011;410;48.954;9.474;2022-07-01T10:13:46;5.00;;;4.33;;
846;SDS011;410;48.954;9.474;2022-07-01T10:15:54;4.43;;;4.03;;
846;SDS011;410;48.954;9.474;2022-07-01T10:17:58;6.90;;;4.63;;
846;SDS011;410;48.954;9.474;2022-07-01T10:20:08;5.90;;;4.60;;
846;SDS011;410;48.954;9.474;2022-07-01T10:22:26;4.40;;;4.00;;
846;SDS011;410;48.954;9.474;2022-07-01T10:24:31;4.70;;;4.30;;
846;SDS011;410;48.954;9.474;2022-07-01T10:26:34;4.77;;;4.30;;
846;SDS011;410;48.954;9.474;2022-07-01T10:28:42;5.13;;;4.63;;
846;SDS011;410;48.954;9.474;2022-07-01T10:31:00;5.57;;;4.70;;
846;SDS011;410;48.954;9.474;2022-07-01T10:33:04;5.90;;;4.80;;
846;SDS011;410;48.954;9.474;2022-07-01T10:35:07;5.20;;;4.80;;
846;SDS011;410;48.954;9.474;2022-07-01T10:37:11;5.80;;;5.30;;
846;SDS011;410;48.954;9.474;2022-07-01T10:39:15;8.73;;;5.17;;
846;SDS011;410;48.954;9.474;2022-07-01T10:41:30;5.40;;;4.80;;
846;SDS011;410;48.954;9.474;2022-07-01T10:43:34;5.47;;;4.97;;
846;SDS011;410;48.954;9.474;2022-07-01T10:45:41;5.83;;;5.30;;
846;SDS011;410;48.954;9.474;2022-07-01T10:47:45;4.27;;;3.87;;
846;SDS011;410;48.954;9.474;2022-07-01T10:49:53;5.03;;;4.53;;
846;SDS011;410;48.954;9.474;2022-07-01T10:51:57;5.20;;;4.70;;
846;SDS011;410;48.954;9.474;2022-07-01T10:54:06;4.80;;;4.37;;
846;SDS011;410;48.954;9.474;2022-07-01T10:56:09;5.43;;;4.93;;
846;SDS011;410;48.954;9.474;2022-07-01T10:58:13;5.80;;;5.10;;
846;SDS011;410;48.954;9.474;2022-07-01T11:00:29;5.60;;;5.10;;
846;SDS011;410;48.954;9.474;2022-07-01T11:02:34;6.80;;;4.33;;
846;SDS011;410;48.954;9.474;2022-07-01T11:04:38;5.27;;;4.77;;
846;SDS011;410;48.954;9.474;2022-07-01T11:06:43;6.50;;;4.93;;
846;SDS011;410;48.954;9.474;2022-07-01T11:08:47;6.00;;;5.40;;
846;SDS011;410;48.954;9.474;2022-07-01T11:10:53;7.90;;;4.93;;
846;SDS011;410;48.954;9.474;2022-07-01T11:12:58;5.00;;;4.50;;
846;SDS011;410;48.954;9.474;2022-07-01T11:15:04;4.70;;;4.20;;
846;SDS011;410;48.954;9.474;2022-07-01T11:17:08;4.83;;;3.90;;
846;SDS011;410;48.954;9.474;2022-07-01T11:19:12;4.67;;;3.93;;
846;SDS011;410;48.954;9.474;2022-07-01T11:21:15;3.87;;;3.47;;
846;SDS011;410;48.954;9.474;2022-07-01T11:23:20;3.90;;;3.47;;
846;SDS011;410;48.954;9.474;2022-07-01T11:25:24;3.43;;;3.13;;
846;SDS011;410;48.954;9.474;2022-07-01T11:27:28;3.60;;;3.00;;
846;SDS011;410;48.954;9.474;2022-07-01T11:29:31;3.20;;;2.63;;
846;SDS011;410;48.954;9.474;2022-07-01T11:31:36;4.30;;;2.40;;
846;SDS011;410;48.954;9.474;2022-07-01T11:33:39;4.10;;;2.20;;
846;SDS011;410;48.954;9.474;2022-07-01T11:35:43;3.00;;;2.07;;
846;SDS011;410;48.954;9.474;2022-07-01T11:38:05;3.10;;;2.23;;
846;SDS011;410;48.954;9.474;2022-07-01T11:40:26;4.30;;;2.47;;
846;SDS011;410;48.954;9.474;2022-07-01T11:42:29;3.00;;;2.70;;
846;SDS011;410;48.954;9.474;2022-07-01T11:44:33;4.80;;;2.50;;
846;SDS011;410;48.954;9.474;2022-07-01T11:46:39;2.60;;;2.07;;
846;SDS011;410;48.954;9.474;2022-07-01T11:48:42;3.13;;;2.50;;
846;SDS011;410;48.954;9.474;2022-07-01T11:50:48;3.83;;;2.67;;
846;SDS011;410;48.954;9.474;2022-07-01T11:52:52;4.20;;;3.10;;
846;SDS011;410;48.954;9.474;2022-07-01T11:54:56;4.30;;;2.80;;
846;SDS011;410;48.954;9.474;2022-07-01T11:57:20;5.73;;;3.00;;
846;SDS011;410;48.954;9.474;2022-07-01T11:59:24;4.03;;;3.17;;
846;SDS011;410;48.954;9.474;2022-07-01T12:01:28;4.80;;;2.83;;
846;SDS011;410;48.954;9.474;2022-07-01T12:03:34;3.63;;;3.17;;
846;SDS011;410;48.954;9.474;2022-07-01T12:05:39;3.53;;;3.23;;
846;SDS011;410;48.954;9.474;2022-07-01T12:07:42;4.00;;;3.53;;
846;SDS011;410;48.954;9.474;2022-07-01T12:09:47;3.63;;;2.80;;
846;SDS011;410;48.954;9.474;2022-07-01T12:11:51;3.10;;;2.70;;
846;SDS011;410;48.954;9.474;2022-07-01T12:13:55;3.30;;;2.90;;
846;SDS011;410;48.954;9.474;2022-07-01T12:16:05;4.83;;;3.00;;
846;SDS011;410;48.954;9.474;2022-07-01T12:18:09;4.57;;;3.00;;
846;SDS011;410;48.954;9.474;2022-07-01T12:20:14;3.60;;;2.80;;
846;SDS011;410;48.954;9.474;2022-07-01T12:22:18;3.07;;;2.77;;
846;SDS011;410;48.954;9.474;2022-07-01T12:24:22;4.13;;;3.40;;
846;SDS011;410;48.954;9.474;2022-07-01T12:26:25;3.57;;;3.10;;
846;SDS011;410;48.954;9.474;2022-07-01T12:28:29;3.50;;;3.20;;
846;SDS011;410;48.954;9.474;2022-07-01T12:30:33;4.33;;;3.47;;
846;SDS011;410;48.954;9.474;2022-07-01T12:32:37;4.27;;;3.60;;
846;SDS011;410;48.954;9.474;2022-07-01T12:34:44;4.07;;;3.50;;
846;SDS011;410;48.954;9.474;2022-07-01T12:36:50;4.17;;;3.17;;
846;SDS011;410;48.954;9.474;2022-07-01T12:39:00;4.30;;;3.70;;
846;SDS011;410;48.954;9.474;2022-07-01T12:43:29;5.10;;;4.20;;
846;SDS011;410;48.954;9.474;2022-07-01T12:45:33;4.13;;;3.73;;
846;SDS011;410;48.954;9.474;2022-07-01T12:47:42;4.37;;;3.70;;
846;SDS011;410;48.954;9.474;2022-07-01T12:49:46;4.50;;;4.10;;
846;SDS011;410;48.954;9.474;2022-07-01T12:51:51;5.97;;;4.23;;
846;SDS011;410;48.954;9.474;2022-07-01T12:53:55;4.80;;;4.23;;
846;SDS011;410;48.954;9.474;2022-07-01T12:55:58;3.90;;;3.60;;
846;SDS011;410;48.954;9.474;2022-07-01T12:58:03;5.03;;;4.53;;
846;SDS011;410;48.954;9.474;2022-07-01T13:00:07;5.30;;;4.30;;
846;SDS011;410;48.954;9.474;2022-07-01T13:02:11;4.07;;;3.67;;
846;SDS011;410;48.954;9.474;2022-07-01T13:04:14;4.37;;;3.97;;
846;SDS011;410;48.954;9.474;2022-07-01T13:06:26;5.10;;;4.70;;
846;SDS011;410;48.954;9.474;2022-07-01T13:08:30;4.80;;;3.93;;
846;SDS011;410;48.954;9.474;2022-07-01T13:10:33;4.70;;;4.30;;
846;SDS011;410;48.954;9.474;2022-07-01T13:12:37;4.97;;;4.40;;
846;SDS011;410;48.954;9.474;2022-07-01T13:14:40;5.03;;;3.57;;
846;SDS011;410;48.954;9.474;2022-07-01T13:16:43;4.63;;;4.10;;
846;SDS011;410;48.954;9.474;2022-07-01T13:18:46;5.20;;;4.17;;
846;SDS011;410;48.954;9.474;2022-07-01T13:20:49;4.63;;;4.00;;
846;SDS011;410;48.954;9.474;2022-07-01T13:22:53;4.77;;;4.03;;
846;SDS011;410;48.954;9.474;2022-07-01T13:24:57;4.40;;;4.00;;